Time;durP1;ratioP1;P1;durP2;ratioP2;P2;SDS_P1;SDS_P2;PMS_P1;PMS_P2;Temp;Humidity;BMP_temperature;BMP_pressure;BME280_temperature;BME280_humidity;BME280_pressure;Samples;Min_cycle;Max_cycle;Signal;HPM_P1;HPM_P2
2023/09/11 00:02:10;;;;;;;6.95;4.70;;;22.80;99.90;;;;;;7390779;19;20151;-76
2023/09/11 00:04:35;;;;;;;7.07;4.80;;;22.80;99.90;;;;;;7387337;19;20584;-75
2023/09/11 00:07:01;;;;;;;6.20;4.85;;;22.70;99.90;;;;;;7390725;19;20622;-75
2023/09/11 00:09:27;;;;;;;5.18;4.53;;;22.80;99.90;;;;;;7387805;19;20134;-76
2023/09/11 00:11:53;;;;;;;7.35;5.22;;;23.00;99.90;;;;;;7385395;19;20135;-75
2023/09/11 00:14:19;;;;;;;6.25;5.00;;;22.90;99.90;;;;;;7388782;19;20600;-76
2023/09/11 00:16:44;;;;;;;5.00;4.20;;;22.70;99.90;;;;;;7390223;19;20148;-75
2023/09/11 00:19:12;;;;;;;7.22;4.45;;;22.60;99.90;;;;;;7390056;19;20135;-75
2023/09/11 00:21:38;;;;;;;4.60;3.90;;;22.40;99.90;;;;;;7391734;19;20143;-75
2023/09/11 00:24:04;;;;;;;8.48;4.85;;;22.40;99.90;;;;;;7389465;19;20540;-76
2023/09/11 00:26:31;;;;;;;4.43;3.97;;;22.40;99.90;;;;;;7390101;19;20226;-75
2023/09/11 00:28:57;;;;;;;6.05;4.55;;;22.50;99.90;;;;;;7390055;19;20878;-75
2023/09/11 00:31:22;;;;;;;6.05;5.00;;;22.70;99.90;;;;;;7388444;19;20127;-75
2023/09/11 00:33:48;;;;;;;6.72;4.07;;;22.50;99.90;;;;;;7389998;19;20686;-76
2023/09/11 00:36:14;;;;;;;6.18;4.38;;;22.50;99.90;;;;;;7389359;19;20142;-75
2023/09/11 00:38:40;;;;;;;8.07;4.80;;;22.60;99.90;;;;;;7386356;19;20155;-75
2023/09/11 00:41:05;;;;;;;6.22;4.60;;;22.60;99.90;;;;;;7389536;19;20157;-75
2023/09/11 00:43:31;;;;;;;6.22;4.47;;;22.80;99.90;;;;;;7390766;19;20146;-77
2023/09/11 00:45:58;;;;;;;4.45;3.97;;;22.50;99.90;;;;;;7388079;19;20142;-75
2023/09/11 00:48:24;;;;;;;5.32;4.57;;;22.20;99.90;;;;;;7387860;19;20146;-76
2023/09/11 00:50:51;;;;;;;5.75;5.05;;;22.10;99.90;;;;;;7388257;19;20237;-75
2023/09/11 00:53:19;;;;;;;5.32;4.35;;;21.90;99.90;;;;;;7389329;19;20180;-75
2023/09/11 00:55:45;;;;;;;6.47;4.22;;;21.80;99.90;;;;;;7386297;19;20154;-76
2023/09/11 00:58:15;;;;;;;5.15;4.40;;;21.80;99.90;;;;;;7387789;19;20142;-75
2023/09/11 01:00:43;;;;;;;5.47;4.38;;;21.80;99.90;;;;;;7388141;19;20604;-74
2023/09/11 01:03:08;;;;;;;5.75;4.20;;;21.80;99.90;;;;;;7387351;19;20138;-75
2023/09/11 01:05:36;;;;;;;5.07;4.20;;;22.00;99.90;;;;;;7385727;19;20158;-75
2023/09/11 01:08:02;;;;;;;6.53;4.55;;;22.30;99.90;;;;;;7387844;19;20631;-74
2023/09/11 01:10:27;;;;;;;5.57;3.95;;;22.30;99.90;;;;;;7391021;19;20143;-75
2023/09/11 01:12:54;;;;;;;7.55;4.55;;;21.80;99.90;;;;;;7389101;19;20190;-75
2023/09/11 01:15:19;;;;;;;5.53;4.53;;;21.80;99.90;;;;;;7389174;19;20146;-75
2023/09/11 01:17:54;;;;;;;6.00;4.40;;;21.80;99.90;;;;;;7376376;19;20590;-76
2023/09/11 01:20:32;;;;;;;5.38;4.43;;;22.00;99.90;;;;;;7389703;19;20169;-76
2023/09/11 01:23:25;;;;;;;5.85;4.85;;;22.00;99.90;;;;;;7388184;19;20159;-76
2023/09/11 01:26:13;;;;;;;7.72;5.03;;;22.30;99.90;;;;;;7388818;19;20161;-75
2023/09/11 01:29:15;;;;;;;7.38;4.63;;;22.40;99.90;;;;;;7389109;19;20583;-75
2023/09/11 01:31:44;;;;;;;7.13;4.70;;;22.00;99.90;;;;;;7390902;19;20157;-76
2023/09/11 01:34:10;;;;;;;6.72;4.80;;;21.80;99.90;;;;;;7386351;19;20495;-75
2023/09/11 01:36:36;;;;;;;7.35;5.22;;;21.70;99.90;;;;;;7388177;19;20130;-76
2023/09/11 01:39:02;;;;;;;5.53;4.82;;;21.80;99.90;;;;;;7389124;19;20174;-76
2023/09/11 01:41:34;;;;;;;5.50;4.82;;;22.00;99.90;;;;;;7387450;19;20516;-76
2023/09/11 01:44:23;;;;;;;5.47;4.80;;;21.60;99.90;;;;;;7386221;19;20142;-76
2023/09/11 01:46:52;;;;;;;7.72;5.40;;;21.70;99.90;;;;;;7388718;19;20155;-75
2023/09/11 01:49:20;;;;;;;5.95;4.82;;;21.30;99.90;;;;;;7383504;19;20465;-76
2023/09/11 01:51:47;;;;;;;6.80;4.75;;;21.20;99.90;;;;;;7388484;19;20150;-76
2023/09/11 01:54:14;;;;;;;6.93;4.90;;;21.30;99.90;;;;;;7386542;19;20502;-76
2023/09/11 01:56:40;;;;;;;7.30;4.70;;;21.30;99.90;;;;;;7387676;19;20134;-75
2023/09/11 01:59:05;;;;;;;5.85;4.50;;;21.20;99.90;;;;;;7384770;19;20143;-76
2023/09/11 02:01:31;;;;;;;5.18;3.95;;;21.40;99.90;;;;;;7387406;19;20426;-76
2023/09/11 02:03:57;;;;;;;7.97;4.63;;;21.50;99.90;;;;;;7385433;19;20558;-77
2023/09/11 02:06:22;;;;;;;5.88;4.05;;;21.60;99.90;;;;;;7387335;19;20142;-75
2023/09/11 02:08:48;;;;;;;7.63;4.35;;;21.40;99.90;;;;;;7387250;19;20153;-75
2023/09/11 02:11:14;;;;;;;4.55;3.83;;;21.40;99.90;;;;;;7387959;19;20584;-74
2023/09/11 02:13:40;;;;;;;5.85;4.57;;;21.10;99.90;;;;;;7386697;19;20160;-75
2023/09/11 02:16:06;;;;;;;6.78;4.53;;;21.00;99.90;;;;;;7386605;19;20183;-76
2023/09/11 02:18:32;;;;;;;6.95;4.68;;;21.00;99.90;;;;;;7382699;19;20146;-76
2023/09/11 02:20:57;;;;;;;6.82;4.45;;;21.00;99.90;;;;;;7384977;19;20135;-76
2023/09/11 02:23:23;;;;;;;4.72;4.22;;;20.90;99.90;;;;;;7385576;19;20130;-75
2023/09/11 02:25:50;;;;;;;6.45;4.38;;;20.80;99.90;;;;;;7385048;19;20150;-75
2023/09/11 02:28:15;;;;;;;6.03;4.57;;;20.90;99.90;;;;;;7380583;19;20131;-74
2023/09/11 02:30:41;;;;;;;5.20;4.30;;;20.80;99.90;;;;;;7387135;19;20163;-76
2023/09/11 02:33:07;;;;;;;5.72;4.25;;;20.90;99.90;;;;;;7386264;19;20546;-76
2023/09/11 02:35:33;;;;;;;6.88;4.50;;;21.10;99.90;;;;;;7387083;19;20130;-76
2023/09/11 02:37:58;;;;;;;6.13;4.60;;;21.30;99.90;;;;;;7385546;19;20127;-76
2023/09/11 02:40:24;;;;;;;6.35;4.68;;;21.50;99.90;;;;;;7384410;19;20532;-76
2023/09/11 02:42:50;;;;;;;6.70;5.18;;;21.70;99.90;;;;;;7384905;19;20639;-76
2023/09/11 02:45:16;;;;;;;9.38;5.82;;;21.80;99.90;;;;;;7385304;19;20215;-76
2023/09/11 02:47:41;;;;;;;6.43;5.55;;;21.80;99.90;;;;;;7385517;19;20127;-75
2023/09/11 02:50:08;;;;;;;9.00;5.97;;;21.80;99.90;;;;;;7385813;19;20623;-75
2023/09/11 02:52:33;;;;;;;6.75;5.70;;;21.80;99.90;;;;;;7385439;19;20592;-76
2023/09/11 02:54:59;;;;;;;7.82;5.97;;;21.90;99.90;;;;;;7383611;19;20156;-76
2023/09/11 02:57:25;;;;;;;7.50;5.38;;;21.90;99.90;;;;;;7384669;19;20224;-75
2023/09/11 02:59:55;;;;;;;6.60;5.50;;;21.60;99.90;;;;;;7385209;19;20139;-78
2023/09/11 03:02:24;;;;;;;6.80;5.15;;;21.50;99.90;;;;;;7384017;19;20554;-74
2023/09/11 03:04:50;;;;;;;6.75;4.90;;;21.50;99.90;;;;;;7383506;19;20558;-74
2023/09/11 03:07:20;;;;;;;9.40;5.40;;;21.50;99.90;;;;;;7386763;19;20177;-75
2023/09/11 03:09:48;;;;;;;8.30;5.90;;;21.60;99.90;;;;;;7382703;19;20179;-76
2023/09/11 03:12:14;;;;;;;6.40;5.65;;;21.70;99.90;;;;;;7393202;19;20467;-76
2023/09/11 03:14:40;;;;;;;7.65;6.22;;;21.70;99.90;;;;;;7391405;19;20520;-75
2023/09/11 03:17:05;;;;;;;10.05;5.95;;;21.40;99.90;;;;;;7393876;19;20139;-76
2023/09/11 03:19:35;;;;;;;6.40;5.55;;;21.00;99.90;;;;;;7391494;19;20149;-76
2023/09/11 03:22:01;;;;;;;7.93;5.65;;;20.90;99.90;;;;;;7390239;19;20153;-75
2023/09/11 03:24:27;;;;;;;8.93;5.95;;;21.10;99.90;;;;;;7391450;19;20588;-75
2023/09/11 03:26:52;;;;;;;12.32;6.30;;;20.80;99.90;;;;;;7391420;19;20139;-75
2023/09/11 03:29:18;;;;;;;7.78;6.97;;;20.70;99.90;;;;;;7389882;19;20131;-75
2023/09/11 03:31:44;;;;;;;7.47;5.80;;;20.60;99.90;;;;;;7389381;19;20154;-76
2023/09/11 03:34:10;;;;;;;8.15;5.95;;;20.90;99.90;;;;;;7389760;19;20131;-75
2023/09/11 03:36:36;;;;;;;7.32;5.75;;;20.70;99.90;;;;;;7390291;19;20587;-76
2023/09/11 03:39:02;;;;;;;10.63;6.10;;;20.70;99.90;;;;;;7391557;19;20149;-75
2023/09/11 03:41:29;;;;;;;7.00;5.90;;;20.80;99.90;;;;;;7392331;19;20134;-76
2023/09/11 03:43:55;;;;;;;6.88;5.65;;;20.60;99.90;;;;;;7391867;19;20683;-75
2023/09/11 03:46:21;;;;;;;8.07;6.00;;;20.60;99.90;;;;;;7393167;19;20135;-76
2023/09/11 03:48:47;;;;;;;9.60;6.25;;;20.50;99.90;;;;;;7390300;19;20182;-75
2023/09/11 03:51:13;;;;;;;9.50;6.00;;;20.70;99.90;;;;;;7392104;19;20156;-75
2023/09/11 03:53:42;;;;;;;7.03;5.60;;;20.70;99.90;;;;;;7390716;19;20138;-76
2023/09/11 03:56:12;;;;;;;6.97;5.55;;;20.50;99.90;;;;;;7391603;19;20562;-76
2023/09/11 03:58:41;;;;;;;7.10;5.43;;;20.50;99.90;;;;;;7389341;19;20137;-77
2023/09/11 04:01:07;;;;;;;6.30;5.18;;;20.50;99.90;;;;;;7389790;19;20139;-75
2023/09/11 04:03:33;;;;;;;8.38;6.30;;;20.30;99.90;;;;;;7390508;19;20142;-75
2023/09/11 04:06:00;;;;;;;8.55;6.43;;;20.30;99.90;;;;;;7388286;19;20610;-75
2023/09/11 04:08:25;;;;;;;7.50;6.10;;;20.40;99.90;;;;;;7391986;19;20488;-74
2023/09/11 04:10:51;;;;;;;6.75;5.20;;;20.70;99.90;;;;;;7391717;19;20139;-75
2023/09/11 04:13:17;;;;;;;10.23;6.03;;;20.40;99.90;;;;;;7387680;19;20192;-75
2023/09/11 04:15:43;;;;;;;10.00;5.80;;;20.70;99.90;;;;;;7389980;19;20151;-74
2023/09/11 04:18:09;;;;;;;7.68;5.85;;;20.50;99.90;;;;;;7387731;19;20146;-75
2023/09/11 04:20:35;;;;;;;8.95;6.03;;;20.60;99.90;;;;;;7390564;19;20134;-75
2023/09/11 04:23:02;;;;;;;7.80;5.93;;;20.90;99.90;;;;;;7392126;19;20214;-75
2023/09/11 04:25:29;;;;;;;9.45;5.78;;;20.50;99.90;;;;;;7389327;19;20179;-76
2023/09/11 04:27:55;;;;;;;6.65;5.72;;;20.30;99.90;;;;;;7392684;19;20536;-75
2023/09/11 04:30:20;;;;;;;7.50;6.45;;;20.50;99.90;;;;;;7390755;19;20151;-76
2023/09/11 04:32:46;;;;;;;8.52;6.07;;;20.40;99.90;;;;;;7388882;19;20481;-75
2023/09/11 04:35:12;;;;;;;6.90;5.97;;;20.20;99.90;;;;;;7388966;19;20170;-75
2023/09/11 04:37:37;;;;;;;8.73;6.18;;;20.10;99.90;;;;;;7387084;19;20584;-76
2023/09/11 04:40:06;;;;;;;7.20;5.70;;;20.10;99.90;;;;;;7388816;19;20544;-76
2023/09/11 04:42:33;;;;;;;6.88;5.50;;;20.20;99.90;;;;;;7389666;19;20580;-75
2023/09/11 04:44:59;;;;;;;6.55;4.63;;;20.30;99.90;;;;;;7389486;19;20131;-76
2023/09/11 04:47:26;;;;;;;8.02;4.80;;;20.40;99.90;;;;;;7387371;19;20218;-75
2023/09/11 04:49:52;;;;;;;4.63;4.18;;;20.50;99.90;;;;;;7390264;19;20825;-75
2023/09/11 04:52:18;;;;;;;8.40;5.45;;;20.60;99.90;;;;;;7388664;19;20155;-75
2023/09/11 04:54:43;;;;;;;6.75;5.30;;;20.40;99.90;;;;;;7390311;19;20516;-75
2023/09/11 04:57:09;;;;;;;6.60;5.20;;;20.40;99.90;;;;;;7390967;19;20139;-76
2023/09/11 04:59:35;;;;;;;7.57;5.25;;;20.40;99.90;;;;;;7388545;19;20150;-76
2023/09/11 05:02:01;;;;;;;6.05;4.95;;;20.30;99.90;;;;;;7387139;19;20151;-76
2023/09/11 05:04:26;;;;;;;5.63;4.90;;;20.40;99.90;;;;;;7385608;19;20147;-76
2023/09/11 05:06:53;;;;;;;7.88;6.47;;;20.50;99.90;;;;;;7386244;19;20825;-75
2023/09/11 05:09:19;;;;;;;6.35;4.95;;;20.30;99.90;;;;;;7387742;19;20146;-76
2023/09/11 05:11:44;;;;;;;6.25;5.60;;;20.40;99.90;;;;;;7387801;19;20151;-75
2023/09/11 05:14:10;;;;;;;6.43;5.43;;;20.50;99.90;;;;;;7388760;19;20155;-75
2023/09/11 05:16:36;;;;;;;6.88;4.85;;;20.60;99.90;;;;;;7387320;19;20158;-75
2023/09/11 05:19:02;;;;;;;5.15;4.63;;;20.70;99.90;;;;;;7384411;19;20812;-75
2023/09/11 05:21:27;;;;;;;7.47;5.05;;;20.90;99.90;;;;;;7387238;19;20153;-75
2023/09/11 05:23:53;;;;;;;5.75;5.05;;;20.90;99.90;;;;;;7387855;19;20154;-76
2023/09/11 05:26:20;;;;;;;5.53;4.90;;;21.00;99.90;;;;;;7388134;19;20197;-75
2023/09/11 05:28:46;;;;;;;8.10;5.15;;;20.80;99.90;;;;;;7392006;19;20508;-75
2023/09/11 05:31:12;;;;;;;7.78;5.63;;;21.00;99.90;;;;;;7384297;19;20168;-76
2023/09/11 05:33:38;;;;;;;6.55;5.03;;;21.10;99.90;;;;;;7386845;19;20185;-76
2023/09/11 05:36:03;;;;;;;5.60;4.97;;;20.80;99.90;;;;;;7388146;19;20135;-74
2023/09/11 05:38:29;;;;;;;7.22;5.47;;;20.60;99.90;;;;;;7388291;19;20130;-75
2023/09/11 05:40:55;;;;;;;7.60;4.70;;;20.40;99.90;;;;;;7386004;19;20572;-76
2023/09/11 05:43:21;;;;;;;9.02;4.93;;;20.20;99.90;;;;;;7388914;19;20158;-75
2023/09/11 05:45:46;;;;;;;13.57;9.57;;;20.10;99.90;;;;;;7388367;19;20142;-75
2023/09/11 05:48:12;;;;;;;8.68;5.40;;;20.20;99.90;;;;;;7388169;19;20166;-76
2023/09/11 05:50:38;;;;;;;5.82;5.20;;;20.20;99.90;;;;;;7389400;19;20170;-76
2023/09/11 05:53:06;;;;;;;8.25;5.13;;;20.30;99.90;;;;;;7385651;19;20154;-75
2023/09/11 05:55:35;;;;;;;5.60;5.00;;;20.60;99.90;;;;;;7389977;19;20139;-75
2023/09/11 05:58:01;;;;;;;7.72;5.43;;;20.60;99.90;;;;;;7384287;19;20159;-76
2023/09/11 06:00:27;;;;;;;7.28;5.10;;;20.50;99.90;;;;;;7382694;19;20166;-76
2023/09/11 06:02:53;;;;;;;9.05;5.45;;;20.60;99.90;;;;;;7388490;19;20154;-76
2023/09/11 06:05:19;;;;;;;14.13;7.72;;;20.70;99.90;;;;;;7384526;19;20182;-76
2023/09/11 06:07:45;;;;;;;10.07;6.15;;;20.90;99.90;;;;;;7385940;19;20606;-75
2023/09/11 06:10:14;;;;;;;8.68;6.30;;;20.80;99.90;;;;;;7386912;19;20167;-77
2023/09/11 06:12:40;;;;;;;8.32;6.00;;;20.60;99.90;;;;;;7389025;19;20131;-76
2023/09/11 06:15:06;;;;;;;8.00;5.93;;;20.20;99.90;;;;;;7386417;19;20234;-75
2023/09/11 06:17:33;;;;;;;8.70;5.80;;;20.40;99.90;;;;;;7384470;19;20214;-76
2023/09/11 06:19:59;;;;;;;7.60;5.78;;;20.30;99.90;;;;;;7384325;19;20154;-76
2023/09/11 06:22:25;;;;;;;8.82;6.20;;;20.30;99.90;;;;;;7385429;19;20145;-76
2023/09/11 06:24:51;;;;;;;6.93;5.80;;;20.20;99.90;;;;;;7384438;19;20739;-76
2023/09/11 06:27:17;;;;;;;6.78;5.63;;;20.20;99.90;;;;;;7385615;19;20140;-77
2023/09/11 06:29:44;;;;;;;8.32;6.28;;;20.20;99.90;;;;;;7385885;19;20587;-76
2023/09/11 06:32:12;;;;;;;10.68;5.65;;;20.40;99.90;;;;;;7385098;19;20180;-75
2023/09/11 06:34:37;;;;;;;8.63;5.90;;;20.50;99.90;;;;;;7384956;19;20154;-73
2023/09/11 06:37:03;;;;;;;8.18;5.45;;;20.40;99.90;;;;;;7387530;19;20143;-74
2023/09/11 06:39:29;;;;;;;8.00;5.80;;;20.30;99.90;;;;;;7387067;19;20205;-76
2023/09/11 06:41:55;;;;;;;7.80;5.35;;;20.20;99.90;;;;;;7384042;19;20141;-75
2023/09/11 06:44:20;;;;;;;7.88;5.72;;;20.20;99.90;;;;;;7385767;19;20150;-77
2023/09/11 06:46:46;;;;;;;9.50;6.72;;;20.30;99.90;;;;;;7391420;19;20130;-76
2023/09/11 06:49:12;;;;;;;9.50;7.50;;;20.30;99.90;;;;;;7391333;19;20143;-76
2023/09/11 06:51:38;;;;;;;10.73;7.30;;;20.40;99.90;;;;;;7392052;19;20238;-76
2023/09/11 06:54:07;;;;;;;9.43;6.78;;;20.40;99.90;;;;;;7392905;19;20209;-75
2023/09/11 06:56:33;;;;;;;10.43;7.15;;;20.60;99.90;;;;;;7390742;19;20181;-75
2023/09/11 06:58:59;;;;;;;11.73;8.10;;;21.10;99.90;;;;;;7391504;19;20828;-76
2023/09/11 07:01:24;;;;;;;10.93;7.88;;;21.30;99.90;;;;;;7392537;19;20144;-76
2023/09/11 07:03:50;;;;;;;10.63;7.75;;;21.50;99.90;;;;;;7391130;19;20155;-76
2023/09/11 07:06:17;;;;;;;10.88;7.80;;;21.60;99.90;;;;;;7394170;19;20591;-76
2023/09/11 07:08:43;;;;;;;11.43;7.97;;;21.70;99.90;;;;;;7392837;19;20150;-75
2023/09/11 07:11:08;;;;;;;9.25;7.40;;;21.80;99.90;;;;;;7392379;19;20277;-75
2023/09/11 07:13:34;;;;;;;10.30;7.70;;;21.90;99.90;;;;;;7391048;19;20522;-75
2023/09/11 07:16:00;;;;;;;11.35;7.07;;;22.00;99.90;;;;;;7390706;19;20139;-76
2023/09/11 07:18:27;;;;;;;9.48;7.45;;;22.00;99.90;;;;;;7389270;19;20150;-76
2023/09/11 07:20:53;;;;;;;8.27;6.57;;;22.10;99.90;;;;;;7391005;19;20134;-77
2023/09/11 07:23:20;;;;;;;10.13;7.20;;;22.00;99.90;;;;;;7390333;19;20839;-76
2023/09/11 07:25:47;;;;;;;10.82;7.47;;;22.10;99.90;;;;;;7392635;19;20147;-82
2023/09/11 07:28:16;;;;;;;9.73;7.10;;;22.10;99.90;;;;;;7393745;19;20155;-78
2023/09/11 07:30:44;;;;;;;10.23;6.85;;;22.30;99.90;;;;;;7388072;19;20142;-79
2023/09/11 07:33:11;;;;;;;9.98;6.70;;;22.30;99.90;;;;;;7391771;19;20646;-78
2023/09/11 07:35:37;;;;;;;8.57;6.80;;;22.30;99.90;;;;;;7393628;19;20135;-78
2023/09/11 07:38:05;;;;;;;11.18;6.85;;;22.30;99.90;;;;;;7389906;19;20166;-76
2023/09/11 07:40:32;;;;;;;9.43;7.05;;;22.40;99.90;;;;;;7389148;19;20442;-78
2023/09/11 07:42:57;;;;;;;13.20;7.30;;;22.40;99.90;;;;;;7388227;19;20166;-77
2023/09/11 07:45:23;;;;;;;11.00;7.15;;;22.50;99.90;;;;;;7386115;19;20142;-78
2023/09/11 07:47:50;;;;;;;11.52;6.75;;;22.60;99.90;;;;;;7389941;19;20560;-78
2023/09/11 07:50:16;;;;;;;9.88;6.95;;;22.70;99.90;;;;;;7389910;19;21248;-76
2023/09/11 07:52:42;;;;;;;10.23;7.47;;;22.80;99.90;;;;;;7389952;19;20138;-76
2023/09/11 07:55:08;;;;;;;10.70;7.85;;;22.80;99.90;;;;;;7388849;19;20592;-76
2023/09/11 07:57:33;;;;;;;11.80;7.35;;;23.00;99.90;;;;;;7390615;19;20577;-76
2023/09/11 08:00:06;;;;;;;11.75;6.70;;;23.10;99.90;;;;;;7389663;19;20159;-76
2023/09/11 08:02:36;;;;;;;8.77;6.50;;;23.20;99.90;;;;;;7390511;19;20636;-76
2023/09/11 08:05:02;;;;;;;10.45;6.65;;;23.50;99.90;;;;;;7386613;19;20178;-76
2023/09/11 08:07:27;;;;;;;9.15;6.80;;;23.80;99.90;;;;;;7392480;19;20154;-77
2023/09/11 08:09:53;;;;;;;10.45;7.57;;;24.10;99.90;;;;;;7396240;19;20487;-77
2023/09/11 08:12:19;;;;;;;9.38;6.28;;;24.40;99.90;;;;;;7390694;19;20152;-77
2023/09/11 08:14:45;;;;;;;13.55;6.53;;;24.60;99.90;;;;;;7390873;19;20147;-75
2023/09/11 08:17:12;;;;;;;12.57;6.82;;;24.70;99.90;;;;;;7390680;19;20610;-76
2023/09/11 08:19:39;;;;;;;9.60;6.90;;;24.70;99.90;;;;;;7392500;19;20166;-75
2023/09/11 08:22:04;;;;;;;7.72;6.10;;;24.80;99.90;;;;;;7390144;19;20139;-76
2023/09/11 08:24:30;;;;;;;8.85;6.70;;;24.80;99.90;;;;;;7391014;19;20611;-75
2023/09/11 08:26:57;;;;;;;11.98;5.85;;;24.80;99.90;;;;;;7390642;19;20150;-75
2023/09/11 08:29:22;;;;;;;9.75;6.55;;;24.90;99.90;;;;;;7392151;19;20583;-75
2023/09/11 08:31:48;;;;;;;11.75;7.20;;;25.00;99.90;;;;;;7389594;19;20159;-75
2023/09/11 08:34:14;;;;;;;11.55;7.05;;;25.10;99.90;;;;;;7388615;19;20131;-75
2023/09/11 08:36:40;;;;;;;6.88;6.03;;;25.20;99.90;;;;;;7391259;19;20205;-77
2023/09/11 08:39:05;;;;;;;11.13;7.40;;;25.30;99.90;;;;;;7389163;19;20219;-76
2023/09/11 08:41:32;;;;;;;11.65;7.55;;;25.40;99.90;;;;;;7389956;19;20637;-75
2023/09/11 08:43:57;;;;;;;8.65;6.80;;;25.30;99.90;;;;;;7390062;19;20162;-76
2023/09/11 08:46:26;;;;;;;8.45;6.55;;;25.30;99.90;;;;;;7389901;19;20151;-75
2023/09/11 08:48:57;;;;;;;9.05;6.28;;;25.30;99.90;;;;;;7388694;19;20215;-76
2023/09/11 08:51:29;;;;;;;9.80;6.13;;;25.30;99.90;;;;;;7389383;19;20151;-76
2023/09/11 08:53:56;;;;;;;10.48;6.43;;;25.30;99.90;;;;;;7388522;19;20582;-74
2023/09/11 08:56:22;;;;;;;8.45;5.93;;;25.30;99.90;;;;;;7389538;19;20484;-75
2023/09/11 08:58:52;;;;;;;11.45;6.57;;;25.40;99.90;;;;;;7385739;19;20159;-76
2023/09/11 09:01:20;;;;;;;11.38;6.28;;;25.30;99.90;;;;;;7388372;19;20154;-77
2023/09/11 09:03:47;;;;;;;8.00;6.07;;;25.40;99.90;;;;;;7388779;19;20591;-75
2023/09/11 09:06:15;;;;;;;11.25;5.97;;;25.50;99.90;;;;;;7390577;19;20142;-75
2023/09/11 09:08:41;;;;;;;12.68;6.25;;;25.60;99.90;;;;;;7384519;19;20143;-75
2023/09/11 09:11:07;;;;;;;8.50;6.25;;;25.60;99.90;;;;;;7387198;19;20157;-76
2023/09/11 09:13:36;;;;;;;8.57;5.75;;;25.70;99.90;;;;;;7387315;19;20127;-76
2023/09/11 09:16:02;;;;;;;7.40;6.18;;;25.80;99.90;;;;;;7389306;19;20134;-76
2023/09/11 09:18:29;;;;;;;12.80;8.88;;;25.90;99.90;;;;;;7385372;19;20142;-75
2023/09/11 09:20:55;;;;;;;9.55;6.45;;;25.90;99.90;;;;;;7389477;19;20226;-75
2023/09/11 09:23:39;;;;;;;9.48;6.60;;;25.90;99.90;;;;;;7386272;19;20183;-74
2023/09/11 09:26:11;;;;;;;10.02;5.93;;;26.00;99.90;;;;;;7389642;19;20130;-75
2023/09/11 09:28:44;;;;;;;7.57;5.45;;;26.00;99.90;;;;;;7387910;19;20139;-75
2023/09/11 09:31:12;;;;;;;10.80;6.95;;;26.10;99.90;;;;;;7389779;19;20595;-76
2023/09/11 09:33:38;;;;;;;9.07;6.65;;;26.10;99.90;;;;;;7388611;19;20146;-76
2023/09/11 09:36:07;;;;;;;7.65;6.55;;;26.20;99.90;;;;;;7387427;19;20157;-74
2023/09/11 09:38:33;;;;;;;10.98;6.07;;;26.40;99.90;;;;;;7386596;19;20138;-74
2023/09/11 09:41:09;;;;;;;8.95;6.25;;;26.50;99.90;;;;;;7387783;19;20627;-75
2023/09/11 09:43:35;;;;;;;8.45;5.78;;;26.50;99.90;;;;;;7385527;19;20154;-76
2023/09/11 09:46:17;;;;;;;7.10;5.53;;;26.60;99.90;;;;;;7386900;19;20154;-75
2023/09/11 09:48:44;;;;;;;8.55;6.25;;;26.80;99.90;;;;;;7388860;19;20158;-75
2023/09/11 09:51:10;;;;;;;8.57;5.65;;;27.00;99.90;;;;;;7387709;19;20138;-74
2023/09/11 09:53:42;;;;;;;6.78;5.30;;;27.00;99.90;;;;;;7387573;19;20142;-75
2023/09/11 09:56:10;;;;;;;7.18;5.30;;;27.00;99.90;;;;;;7387147;19;20135;-74
2023/09/11 09:58:41;;;;;;;8.60;5.38;;;27.00;99.90;;;;;;7385030;19;20151;-76
2023/09/11 10:01:15;;;;;;;8.35;5.07;;;27.00;99.90;;;;;;7386531;19;20143;-76
2023/09/11 10:03:47;;;;;;;6.15;4.90;;;27.00;99.90;;;;;;7384677;19;20192;-79
2023/09/11 10:06:21;;;;;;;8.13;5.68;;;26.90;99.90;;;;;;7386069;19;20391;-76
2023/09/11 10:09:02;;;;;;;7.78;5.72;;;27.30;99.90;;;;;;7385793;19;20202;-77
2023/09/11 10:11:29;;;;;;;8.82;6.07;;;27.50;99.90;;;;;;7387052;19;20157;-78
2023/09/11 10:14:00;;;;;;;8.77;5.90;;;27.50;99.90;;;;;;7383636;19;20572;-76
2023/09/11 10:16:27;;;;;;;7.93;5.10;;;27.40;99.90;;;;;;7385462;19;20171;-78
2023/09/11 10:18:54;;;;;;;6.57;5.03;;;27.40;99.90;;;;;;7381725;19;20154;-77
2023/09/11 10:21:20;;;;;;;12.27;6.15;;;27.50;99.90;;;;;;7384630;19;20135;-77
2023/09/11 10:23:46;;;;;;;6.97;5.13;;;27.60;99.90;;;;;;7384649;19;20139;-77
2023/09/11 10:26:19;;;;;;;6.93;4.85;;;27.70;99.90;;;;;;7385633;19;20146;-76
2023/09/11 10:28:50;;;;;;;7.07;5.00;;;27.60;99.90;;;;;;7385193;19;20138;-75
2023/09/11 10:31:31;;;;;;;5.03;4.35;;;27.60;99.90;;;;;;7385078;19;20138;-76
2023/09/11 10:34:00;;;;;;;13.43;4.75;;;27.60;99.90;;;;;;7383224;19;20134;-77
2023/09/11 10:36:50;;;;;;;6.80;4.43;;;27.70;99.90;;;;;;7383909;19;20139;-78
2023/09/11 10:39:18;;;;;;;7.05;4.68;;;27.70;99.90;;;;;;7386167;19;20166;-77
2023/09/11 10:41:44;;;;;;;7.63;5.28;;;27.70;99.90;;;;;;7385820;19;20783;-78
2023/09/11 10:44:10;;;;;;;5.28;4.43;;;27.70;99.90;;;;;;7387003;19;20166;-79
2023/09/11 10:46:39;;;;;;;9.88;6.57;;;28.00;99.90;;;;;;7385628;19;20154;-78
2023/09/11 10:49:20;;;;;;;7.50;5.10;;;28.10;99.90;;;;;;7385378;19;20142;-76
2023/09/11 10:51:47;;;;;;;8.93;4.93;;;28.20;99.90;;;;;;7384127;19;20150;-77
2023/09/11 10:54:21;;;;;;;9.38;4.20;;;28.20;99.90;;;;;;7383117;19;20157;-77
2023/09/11 10:56:49;;;;;;;7.82;4.80;;;28.20;99.90;;;;;;7386136;19;20145;-78
2023/09/11 10:59:16;;;;;;;11.40;5.97;;;28.40;99.90;;;;;;7381092;19;20146;-80
2023/09/11 11:01:45;;;;;;;6.47;5.20;;;28.60;99.90;;;;;;7386350;19;20222;-79
2023/09/11 11:04:14;;;;;;;7.28;5.28;;;28.70;99.90;;;;;;7383635;19;20181;-80
2023/09/11 11:06:46;;;;;;;8.38;5.10;;;28.60;99.90;;;;;;7384800;19;20139;-79
2023/09/11 11:09:25;;;;;;;7.85;4.85;;;28.60;99.90;;;;;;7386901;19;20162;-80
2023/09/11 11:11:55;;;;;;;6.45;4.68;;;28.50;99.90;;;;;;7389737;19;20150;-82
2023/09/11 11:14:23;;;;;;;8.27;4.70;;;28.50;99.90;;;;;;7387768;19;20131;-80
2023/09/11 11:16:55;;;;;;;9.38;4.95;;;28.40;99.90;;;;;;7386569;19;20528;-80
2023/09/11 11:19:26;;;;;;;7.63;5.32;;;28.50;99.90;;;;;;7385955;19;20170;-80
2023/09/11 11:21:51;;;;;;;8.60;6.50;;;28.70;99.90;;;;;;7388627;19;20138;-79
2023/09/11 11:24:17;;;;;;;11.20;6.78;;;28.80;99.90;;;;;;7386469;19;20475;-80
2023/09/11 11:26:44;;;;;;;7.55;5.18;;;28.90;99.90;;;;;;7388643;19;20222;-78
2023/09/11 11:29:10;;;;;;;10.20;6.15;;;28.90;99.90;;;;;;7384796;19;20155;-81
2023/09/11 11:31:38;;;;;;;7.03;4.78;;;28.90;99.90;;;;;;7389807;19;20645;-79
2023/09/11 11:34:04;;;;;;;7.32;5.15;;;28.90;99.90;;;;;;7392650;19;20151;-78
2023/09/11 11:36:30;;;;;;;7.53;4.90;;;28.90;99.90;;;;;;7391803;19;20142;-79
2023/09/11 11:38:56;;;;;;;9.70;4.90;;;28.90;99.90;;;;;;7389673;19;20607;-80
2023/09/11 11:41:23;;;;;;;8.57;4.80;;;28.80;99.90;;;;;;7392502;19;20134;-78
2023/09/11 11:43:50;;;;;;;6.95;5.10;;;28.90;99.90;;;;;;7394458;19;20437;-80
2023/09/11 11:46:16;;;;;;;5.63;4.45;;;29.00;99.90;;;;;;7393391;19;20609;-78
2023/09/11 11:48:42;;;;;;;7.35;5.30;;;29.00;99.90;;;;;;7393532;19;20234;-81
2023/09/11 11:51:08;;;;;;;7.30;4.68;;;29.20;99.90;;;;;;7392673;19;20166;-79
2023/09/11 11:53:35;;;;;;;10.35;5.35;;;29.20;99.90;;;;;;7392655;19;20167;-80
2023/09/11 11:56:03;;;;;;;7.63;4.50;;;29.20;99.90;;;;;;7393534;19;20149;-80
2023/09/11 11:58:29;;;;;;;8.75;4.88;;;29.30;99.90;;;;;;7395012;19;20714;-80
2023/09/11 12:01:00;;;;;;;7.72;4.50;;;29.50;99.90;;;;;;7392803;19;20135;-79
2023/09/11 12:03:31;;;;;;;6.25;3.70;;;29.40;99.90;;;;;;7391555;19;20600;-81
2023/09/11 12:05:59;;;;;;;6.68;5.30;;;29.40;99.90;;;;;;7390212;19;20221;-81
2023/09/11 12:08:26;;;;;;;6.50;5.05;;;29.50;99.90;;;;;;7392427;19;20167;-80
2023/09/11 12:10:52;;;;;;;8.90;5.00;;;29.60;99.90;;;;;;7390372;19;20138;-82
2023/09/11 12:13:22;;;;;;;6.63;4.57;;;29.60;99.90;;;;;;7389729;19;20497;-82
2023/09/11 12:15:56;;;;;;;7.72;4.45;;;29.50;99.90;;;;;;7392988;19;20595;-81
2023/09/11 12:18:24;;;;;;;9.98;5.72;;;29.50;99.90;;;;;;7388766;19;20983;-81
2023/09/11 12:21:11;;;;;;;18.63;10.68;;;29.50;99.90;;;;;;7389633;19;20177;-78
2023/09/11 12:23:38;;;;;;;8.07;4.05;;;29.60;99.90;;;;;;7389360;19;20313;-77
2023/09/11 12:26:10;;;;;;;4.03;3.63;;;29.90;99.90;;;;;;7392024;19;20149;-79
2023/09/11 12:28:36;;;;;;;6.85;4.53;;;30.00;99.90;;;;;;7389069;19;20163;-77
2023/09/11 12:31:02;;;;;;;8.70;5.72;;;30.00;99.90;;;;;;7391636;19;20177;-78
2023/09/11 12:33:33;;;;;;;5.88;4.05;;;30.00;99.90;;;;;;7388808;19;20142;-79
2023/09/11 12:36:00;;;;;;;7.18;4.70;;;29.90;99.90;;;;;;7390119;19;20160;-78
2023/09/11 12:38:29;;;;;;;6.50;4.32;;;29.90;99.90;;;;;;7389680;19;20457;-79
2023/09/11 12:40:55;;;;;;;8.30;4.57;;;29.80;99.90;;;;;;7391521;19;20754;-80
2023/09/11 12:43:24;;;;;;;7.53;4.80;;;29.90;99.90;;;;;;7388629;19;20300;-82
2023/09/11 12:45:50;;;;;;;7.90;4.93;;;29.90;99.90;;;;;;7390631;19;20154;-80
2023/09/11 12:48:17;;;;;;;7.18;6.07;;;29.80;99.90;;;;;;7390775;19;20578;-80